sensor_id;sensor_type;location;lat;lon;timestamp;P1;durP1;ratioP1;P2;durP2;ratioP2
65373;SDS011;52070;53.760;9.678;2023-08-08T00:01:47;9.80;;;2.70;;
65373;SDS011;52070;53.760;9.678;2023-08-08T00:04:14;11.55;;;2.53;;
65373;SDS011;52070;53.760;9.678;2023-08-08T00:06:41;12.88;;;2.50;;
65373;SDS011;52070;53.760;9.678;2023-08-08T00:09:08;8.38;;;2.45;;
65373;SDS011;52070;53.760;9.678;2023-08-08T00:11:35;14.77;;;2.78;;
65373;SDS011;52070;53.760;9.678;2023-08-08T00:14:03;10.18;;;2.50;;
65373;SDS011;52070;53.760;9.678;2023-08-08T00:16:30;8.70;;;2.30;;
65373;SDS011;52070;53.760;9.678;2023-08-08T00:18:57;13.10;;;2.78;;
65373;SDS011;52070;53.760;9.678;2023-08-08T00:21:24;9.80;;;2.58;;
65373;SDS011;52070;53.760;9.678;2023-08-08T00:23:51;8.93;;;2.10;;
65373;SDS011;52070;53.760;9.678;2023-08-08T00:26:18;8.48;;;2.60;;
65373;SDS011;52070;53.760;9.678;2023-08-08T00:28:45;9.10;;;2.08;;
65373;SDS011;52070;53.760;9.678;2023-08-08T00:31:13;7.97;;;2.40;;
65373;SDS011;52070;53.760;9.678;2023-08-08T00:33:43;9.45;;;2.10;;
65373;SDS011;52070;53.760;9.678;2023-08-08T00:36:09;8.95;;;2.08;;
65373;SDS011;52070;53.760;9.678;2023-08-08T00:38:36;5.57;;;2.17;;
65373;SDS011;52070;53.760;9.678;2023-08-08T00:41:03;10.45;;;2.28;;
65373;SDS011;52070;53.760;9.678;2023-08-08T00:43:30;9.75;;;2.30;;
65373;SDS011;52070;53.760;9.678;2023-08-08T00:45:57;10.82;;;2.92;;
65373;SDS011;52070;53.760;9.678;2023-08-08T00:48:26;6.00;;;2.60;;
65373;SDS011;52070;53.760;9.678;2023-08-08T00:50:53;8.45;;;2.80;;
65373;SDS011;52070;53.760;9.678;2023-08-08T00:53:20;13.80;;;2.50;;
65373;SDS011;52070;53.760;9.678;2023-08-08T00:55:48;10.65;;;2.60;;
65373;SDS011;52070;53.760;9.678;2023-08-08T00:58:16;10.68;;;2.20;;
65373;SDS011;52070;53.760;9.678;2023-08-08T01:00:43;10.43;;;2.50;;
65373;SDS011;52070;53.760;9.678;2023-08-08T01:03:10;5.93;;;1.92;;
65373;SDS011;52070;53.760;9.678;2023-08-08T01:05:41;9.38;;;2.53;;
65373;SDS011;52070;53.760;9.678;2023-08-08T01:08:09;6.47;;;2.60;;
65373;SDS011;52070;53.760;9.678;2023-08-08T01:10:42;5.88;;;2.05;;
65373;SDS011;52070;53.760;9.678;2023-08-08T01:13:10;9.52;;;2.17;;
65373;SDS011;52070;53.760;9.678;2023-08-08T01:15:41;7.22;;;2.13;;
65373;SDS011;52070;53.760;9.678;2023-08-08T01:18:09;5.95;;;2.22;;
65373;SDS011;52070;53.760;9.678;2023-08-08T01:20:39;12.13;;;2.95;;
65373;SDS011;52070;53.760;9.678;2023-08-08T01:23:09;9.52;;;2.20;;
65373;SDS011;52070;53.760;9.678;2023-08-08T01:25:40;8.77;;;2.38;;
65373;SDS011;52070;53.760;9.678;2023-08-08T01:28:07;11.38;;;2.20;;
65373;SDS011;52070;53.760;9.678;2023-08-08T01:30:34;8.35;;;2.13;;
65373;SDS011;52070;53.760;9.678;2023-08-08T01:33:02;8.95;;;2.60;;
65373;SDS011;52070;53.760;9.678;2023-08-08T01:35:33;6.80;;;2.08;;
65373;SDS011;52070;53.760;9.678;2023-08-08T01:38:04;7.40;;;2.10;;
65373;SDS011;52070;53.760;9.678;2023-08-08T01:40:36;6.35;;;2.00;;
65373;SDS011;52070;53.760;9.678;2023-08-08T01:43:07;9.32;;;2.15;;
65373;SDS011;52070;53.760;9.678;2023-08-08T01:45:35;12.52;;;2.72;;
65373;SDS011;52070;53.760;9.678;2023-08-08T01:48:06;14.45;;;2.35;;
65373;SDS011;52070;53.760;9.678;2023-08-08T01:50:34;7.53;;;2.38;;
65373;SDS011;52070;53.760;9.678;2023-08-08T01:53:01;8.82;;;2.28;;
65373;SDS011;52070;53.760;9.678;2023-08-08T01:55:28;13.88;;;1.95;;
65373;SDS011;52070;53.760;9.678;2023-08-08T01:57:55;18.77;;;2.28;;
65373;SDS011;52070;53.760;9.678;2023-08-08T02:00:23;12.63;;;2.60;;
65373;SDS011;52070;53.760;9.678;2023-08-08T02:02:50;11.85;;;2.08;;
65373;SDS011;52070;53.760;9.678;2023-08-08T02:05:17;11.35;;;2.30;;
65373;SDS011;52070;53.760;9.678;2023-08-08T02:07:44;13.57;;;2.78;;
65373;SDS011;52070;53.760;9.678;2023-08-08T02:10:11;13.02;;;2.47;;
65373;SDS011;52070;53.760;9.678;2023-08-08T02:12:38;11.95;;;2.33;;
65373;SDS011;52070;53.760;9.678;2023-08-08T02:15:05;8.32;;;2.22;;
65373;SDS011;52070;53.760;9.678;2023-08-08T02:17:34;16.95;;;2.90;;
65373;SDS011;52070;53.760;9.678;2023-08-08T02:20:02;12.65;;;2.63;;
65373;SDS011;52070;53.760;9.678;2023-08-08T02:22:30;8.48;;;2.10;;
65373;SDS011;52070;53.760;9.678;2023-08-08T02:24:57;12.73;;;1.98;;
65373;SDS011;52070;53.760;9.678;2023-08-08T02:27:24;13.73;;;2.25;;
65373;SDS011;52070;53.760;9.678;2023-08-08T02:29:51;10.20;;;2.00;;
65373;SDS011;52070;53.760;9.678;2023-08-08T02:32:18;8.02;;;1.98;;
65373;SDS011;52070;53.760;9.678;2023-08-08T02:34:46;7.90;;;1.75;;
65373;SDS011;52070;53.760;9.678;2023-08-08T02:37:13;13.02;;;2.08;;
65373;SDS011;52070;53.760;9.678;2023-08-08T02:39:41;13.32;;;1.90;;
65373;SDS011;52070;53.760;9.678;2023-08-08T02:42:08;12.13;;;1.85;;
65373;SDS011;52070;53.760;9.678;2023-08-08T02:44:34;8.05;;;2.28;;
65373;SDS011;52070;53.760;9.678;2023-08-08T02:47:01;11.60;;;1.70;;
65373;SDS011;52070;53.760;9.678;2023-08-08T02:49:29;9.45;;;2.17;;
65373;SDS011;52070;53.760;9.678;2023-08-08T02:51:57;11.40;;;1.52;;
65373;SDS011;52070;53.760;9.678;2023-08-08T02:54:24;10.18;;;2.25;;
65373;SDS011;52070;53.760;9.678;2023-08-08T02:56:51;8.68;;;2.00;;
65373;SDS011;52070;53.760;9.678;2023-08-08T02:59:18;9.32;;;1.98;;
65373;SDS011;52070;53.760;9.678;2023-08-08T03:01:44;8.65;;;1.73;;
65373;SDS011;52070;53.760;9.678;2023-08-08T03:04:12;10.95;;;1.80;;
65373;SDS011;52070;53.760;9.678;2023-08-08T03:06:39;9.82;;;1.60;;
65373;SDS011;52070;53.760;9.678;2023-08-08T03:09:08;10.15;;;2.00;;
65373;SDS011;52070;53.760;9.678;2023-08-08T03:11:35;5.47;;;1.77;;
65373;SDS011;52070;53.760;9.678;2023-08-08T03:14:03;3.00;;;1.48;;
65373;SDS011;52070;53.760;9.678;2023-08-08T03:16:29;7.22;;;1.65;;
65373;SDS011;52070;53.760;9.678;2023-08-08T03:18:56;9.55;;;1.58;;
65373;SDS011;52070;53.760;9.678;2023-08-08T03:21:24;3.97;;;1.30;;
65373;SDS011;52070;53.760;9.678;2023-08-08T03:23:51;6.22;;;1.50;;
65373;SDS011;52070;53.760;9.678;2023-08-08T03:26:19;7.07;;;2.08;;
65373;SDS011;52070;53.760;9.678;2023-08-08T03:28:46;9.05;;;1.42;;
65373;SDS011;52070;53.760;9.678;2023-08-08T03:31:15;6.10;;;1.48;;
65373;SDS011;52070;53.760;9.678;2023-08-08T03:33:43;11.18;;;1.60;;
65373;SDS011;52070;53.760;9.678;2023-08-08T03:36:10;5.72;;;1.75;;
65373;SDS011;52070;53.760;9.678;2023-08-08T03:38:37;8.90;;;1.90;;
65373;SDS011;52070;53.760;9.678;2023-08-08T03:41:05;5.43;;;1.40;;
65373;SDS011;52070;53.760;9.678;2023-08-08T03:43:34;7.15;;;1.25;;
65373;SDS011;52070;53.760;9.678;2023-08-08T03:46:01;9.20;;;1.73;;
65373;SDS011;52070;53.760;9.678;2023-08-08T03:48:28;9.00;;;1.70;;
65373;SDS011;52070;53.760;9.678;2023-08-08T03:50:55;3.97;;;1.40;;
65373;SDS011;52070;53.760;9.678;2023-08-08T03:53:22;7.93;;;1.95;;
65373;SDS011;52070;53.760;9.678;2023-08-08T03:55:49;9.52;;;1.40;;
65373;SDS011;52070;53.760;9.678;2023-08-08T03:58:16;6.65;;;1.30;;
65373;SDS011;52070;53.760;9.678;2023-08-08T04:00:45;4.68;;;1.38;;
65373;SDS011;52070;53.760;9.678;2023-08-08T04:03:13;6.60;;;1.70;;
65373;SDS011;52070;53.760;9.678;2023-08-08T04:05:40;4.10;;;1.13;;
65373;SDS011;52070;53.760;9.678;2023-08-08T04:08:07;7.20;;;1.35;;
65373;SDS011;52070;53.760;9.678;2023-08-08T04:10:35;13.18;;;1.83;;
65373;SDS011;52070;53.760;9.678;2023-08-08T04:13:02;5.72;;;1.23;;
65373;SDS011;52070;53.760;9.678;2023-08-08T04:15:30;6.28;;;1.40;;
65373;SDS011;52070;53.760;9.678;2023-08-08T04:17:58;5.72;;;1.27;;
65373;SDS011;52070;53.760;9.678;2023-08-08T04:20:25;4.95;;;1.05;;
65373;SDS011;52070;53.760;9.678;2023-08-08T04:22:52;6.47;;;1.80;;
65373;SDS011;52070;53.760;9.678;2023-08-08T04:25:19;6.40;;;1.17;;
65373;SDS011;52070;53.760;9.678;2023-08-08T04:27:46;6.88;;;1.20;;
65373;SDS011;52070;53.760;9.678;2023-08-08T04:30:13;8.35;;;1.30;;
65373;SDS011;52070;53.760;9.678;2023-08-08T04:32:40;4.97;;;1.20;;
65373;SDS011;52070;53.760;9.678;2023-08-08T04:35:09;8.10;;;1.17;;
65373;SDS011;52070;53.760;9.678;2023-08-08T04:37:36;4.78;;;1.67;;
65373;SDS011;52070;53.760;9.678;2023-08-08T04:40:03;6.03;;;1.60;;
65373;SDS011;52070;53.760;9.678;2023-08-08T04:42:30;10.82;;;1.52;;
65373;SDS011;52070;53.760;9.678;2023-08-08T04:44:58;3.53;;;1.38;;
65373;SDS011;52070;53.760;9.678;2023-08-08T04:47:25;7.35;;;1.65;;
65373;SDS011;52070;53.760;9.678;2023-08-08T04:49:52;6.03;;;1.08;;
65373;SDS011;52070;53.760;9.678;2023-08-08T04:52:20;6.70;;;1.27;;
65373;SDS011;52070;53.760;9.678;2023-08-08T04:54:47;6.05;;;1.23;;
65373;SDS011;52070;53.760;9.678;2023-08-08T04:57:14;12.27;;;1.30;;
65373;SDS011;52070;53.760;9.678;2023-08-08T04:59:41;7.22;;;1.10;;
65373;SDS011;52070;53.760;9.678;2023-08-08T05:02:09;2.22;;;0.93;;
65373;SDS011;52070;53.760;9.678;2023-08-08T05:04:36;6.30;;;1.08;;
65373;SDS011;52070;53.760;9.678;2023-08-08T05:07:03;6.93;;;1.48;;
65373;SDS011;52070;53.760;9.678;2023-08-08T05:09:32;5.05;;;1.10;;
65373;SDS011;52070;53.760;9.678;2023-08-08T05:12:00;2.33;;;1.00;;
65373;SDS011;52070;53.760;9.678;2023-08-08T05:14:27;12.02;;;1.42;;
65373;SDS011;52070;53.760;9.678;2023-08-08T05:16:54;5.63;;;1.20;;
65373;SDS011;52070;53.760;9.678;2023-08-08T05:19:21;6.68;;;1.20;;
65373;SDS011;52070;53.760;9.678;2023-08-08T05:21:49;6.82;;;1.90;;
65373;SDS011;52070;53.760;9.678;2023-08-08T05:24:16;4.43;;;1.40;;
65373;SDS011;52070;53.760;9.678;2023-08-08T05:26:45;8.10;;;1.30;;
65373;SDS011;52070;53.760;9.678;2023-08-08T05:29:12;5.82;;;1.00;;
65373;SDS011;52070;53.760;9.678;2023-08-08T05:31:39;3.78;;;1.20;;
65373;SDS011;52070;53.760;9.678;2023-08-08T05:34:06;4.55;;;1.42;;
65373;SDS011;52070;53.760;9.678;2023-08-08T05:36:32;4.80;;;1.00;;
65373;SDS011;52070;53.760;9.678;2023-08-08T05:38:59;7.25;;;1.13;;
65373;SDS011;52070;53.760;9.678;2023-08-08T05:41:26;7.10;;;1.25;;
65373;SDS011;52070;53.760;9.678;2023-08-08T05:43:54;2.70;;;1.20;;
65373;SDS011;52070;53.760;9.678;2023-08-08T05:46:21;3.15;;;0.98;;
65373;SDS011;52070;53.760;9.678;2023-08-08T05:48:48;13.20;;;1.30;;
65373;SDS011;52070;53.760;9.678;2023-08-08T05:51:15;9.88;;;2.10;;
65373;SDS011;52070;53.760;9.678;2023-08-08T05:53:42;4.63;;;0.90;;
65373;SDS011;52070;53.760;9.678;2023-08-08T05:56:09;5.35;;;1.10;;
65373;SDS011;52070;53.760;9.678;2023-08-08T05:58:36;7.13;;;1.48;;
65373;SDS011;52070;53.760;9.678;2023-08-08T06:01:05;8.93;;;1.20;;
65373;SDS011;52070;53.760;9.678;2023-08-08T06:03:35;4.10;;;1.65;;
65373;SDS011;52070;53.760;9.678;2023-08-08T06:06:03;5.55;;;0.90;;
65373;SDS011;52070;53.760;9.678;2023-08-08T06:08:30;4.63;;;1.10;;
65373;SDS011;52070;53.760;9.678;2023-08-08T06:10:57;7.55;;;1.13;;
65373;SDS011;52070;53.760;9.678;2023-08-08T06:13:24;3.47;;;0.90;;
65373;SDS011;52070;53.760;9.678;2023-08-08T06:15:51;4.30;;;1.10;;
65373;SDS011;52070;53.760;9.678;2023-08-08T06:18:19;10.52;;;1.35;;
65373;SDS011;52070;53.760;9.678;2023-08-08T06:20:46;3.10;;;1.08;;
65373;SDS011;52070;53.760;9.678;2023-08-08T06:23:13;5.53;;;1.30;;
65373;SDS011;52070;53.760;9.678;2023-08-08T06:25:40;7.85;;;1.65;;
65373;SDS011;52070;53.760;9.678;2023-08-08T06:28:07;2.97;;;1.15;;
65373;SDS011;52070;53.760;9.678;2023-08-08T06:30:34;7.78;;;1.30;;
65373;SDS011;52070;53.760;9.678;2023-08-08T06:33:01;9.57;;;1.70;;
65373;SDS011;52070;53.760;9.678;2023-08-08T06:35:30;7.57;;;1.42;;
65373;SDS011;52070;53.760;9.678;2023-08-08T06:37:57;4.88;;;1.55;;
65373;SDS011;52070;53.760;9.678;2023-08-08T06:40:24;3.38;;;1.20;;
65373;SDS011;52070;53.760;9.678;2023-08-08T06:42:51;6.00;;;1.20;;
65373;SDS011;52070;53.760;9.678;2023-08-08T06:45:18;2.45;;;1.13;;
65373;SDS011;52070;53.760;9.678;2023-08-08T06:47:45;2.83;;;1.13;;
65373;SDS011;52070;53.760;9.678;2023-08-08T06:50:12;2.35;;;1.20;;
65373;SDS011;52070;53.760;9.678;2023-08-08T06:52:40;5.50;;;1.35;;
65373;SDS011;52070;53.760;9.678;2023-08-08T06:55:07;6.05;;;1.20;;
65373;SDS011;52070;53.760;9.678;2023-08-08T06:57:35;5.78;;;1.30;;
65373;SDS011;52070;53.760;9.678;2023-08-08T07:00:02;4.03;;;1.30;;
65373;SDS011;52070;53.760;9.678;2023-08-08T07:02:31;3.53;;;1.30;;
65373;SDS011;52070;53.760;9.678;2023-08-08T07:04:58;5.32;;;1.27;;
65373;SDS011;52070;53.760;9.678;2023-08-08T07:07:25;6.05;;;1.05;;
65373;SDS011;52070;53.760;9.678;2023-08-08T07:09:53;8.00;;;1.52;;
65373;SDS011;52070;53.760;9.678;2023-08-08T07:12:20;5.40;;;1.20;;
65373;SDS011;52070;53.760;9.678;2023-08-08T07:14:47;7.90;;;1.20;;
65373;SDS011;52070;53.760;9.678;2023-08-08T07:17:14;7.38;;;1.20;;
65373;SDS011;52070;53.760;9.678;2023-08-08T07:19:41;7.80;;;1.77;;
65373;SDS011;52070;53.760;9.678;2023-08-08T07:22:08;9.05;;;1.08;;
65373;SDS011;52070;53.760;9.678;2023-08-08T07:24:35;6.13;;;1.48;;
65373;SDS011;52070;53.760;9.678;2023-08-08T07:27:05;5.88;;;1.70;;
65373;SDS011;52070;53.760;9.678;2023-08-08T07:29:32;5.03;;;1.23;;
65373;SDS011;52070;53.760;9.678;2023-08-08T07:31:59;3.88;;;1.02;;
65373;SDS011;52070;53.760;9.678;2023-08-08T07:34:29;0.77;;;0.77;;
65373;SDS011;52070;53.760;9.678;2023-08-08T07:36:57;3.60;;;1.10;;
65373;SDS011;52070;53.760;9.678;2023-08-08T07:39:24;6.60;;;1.17;;
65373;SDS011;52070;53.760;9.678;2023-08-08T07:41:52;8.95;;;1.20;;
65373;SDS011;52070;53.760;9.678;2023-08-08T07:44:20;5.80;;;1.20;;
65373;SDS011;52070;53.760;9.678;2023-08-08T07:46:47;4.13;;;1.20;;
65373;SDS011;52070;53.760;9.678;2023-08-08T07:49:14;7.30;;;1.50;;
65373;SDS011;52070;53.760;9.678;2023-08-08T07:51:41;5.07;;;1.33;;
65373;SDS011;52070;53.760;9.678;2023-08-08T07:54:08;5.03;;;1.42;;
65373;SDS011;52070;53.760;9.678;2023-08-08T07:56:36;5.07;;;1.80;;
65373;SDS011;52070;53.760;9.678;2023-08-08T07:59:03;4.20;;;1.70;;
65373;SDS011;52070;53.760;9.678;2023-08-08T08:01:32;9.23;;;2.13;;
65373;SDS011;52070;53.760;9.678;2023-08-08T08:03:59;8.80;;;1.98;;
65373;SDS011;52070;53.760;9.678;2023-08-08T08:06:26;5.70;;;1.67;;
65373;SDS011;52070;53.760;9.678;2023-08-08T08:08:53;9.73;;;1.90;;
65373;SDS011;52070;53.760;9.678;2023-08-08T08:11:20;4.85;;;1.60;;
65373;SDS011;52070;53.760;9.678;2023-08-08T08:13:47;4.20;;;1.50;;
65373;SDS011;52070;53.760;9.678;2023-08-08T08:16:14;5.28;;;1.80;;
65373;SDS011;52070;53.760;9.678;2023-08-08T08:18:42;4.35;;;1.50;;
65373;SDS011;52070;53.760;9.678;2023-08-08T08:21:09;4.50;;;1.40;;
65373;SDS011;52070;53.760;9.678;2023-08-08T08:23:38;5.75;;;1.63;;
65373;SDS011;52070;53.760;9.678;2023-08-08T08:26:05;4.35;;;1.17;;
65373;SDS011;52070;53.760;9.678;2023-08-08T08:28:32;3.47;;;1.45;;
65373;SDS011;52070;53.760;9.678;2023-08-08T08:31:03;6.50;;;1.63;;
65373;SDS011;52070;53.760;9.678;2023-08-08T08:33:30;4.85;;;1.50;;
65373;SDS011;52070;53.760;9.678;2023-08-08T08:35:58;5.88;;;1.70;;
65373;SDS011;52070;53.760;9.678;2023-08-08T08:38:25;4.30;;;1.48;;
65373;SDS011;52070;53.760;9.678;2023-08-08T08:40:53;7.95;;;1.80;;
65373;SDS011;52070;53.760;9.678;2023-08-08T08:43:28;8.18;;;1.65;;
65373;SDS011;52070;53.760;9.678;2023-08-08T08:45:56;8.60;;;1.73;;
65373;SDS011;52070;53.760;9.678;2023-08-08T08:48:27;4.18;;;1.50;;
65373;SDS011;52070;53.760;9.678;2023-08-08T08:50:54;4.38;;;1.52;;
65373;SDS011;52070;53.760;9.678;2023-08-08T08:53:24;7.88;;;1.40;;
65373;SDS011;52070;53.760;9.678;2023-08-08T08:55:51;2.88;;;1.10;;
65373;SDS011;52070;53.760;9.678;2023-08-08T08:58:19;3.97;;;1.40;;
65373;SDS011;52070;53.760;9.678;2023-08-08T09:00:46;5.47;;;1.30;;
65373;SDS011;52070;53.760;9.678;2023-08-08T09:03:14;1.92;;;1.05;;
65373;SDS011;52070;53.760;9.678;2023-08-08T09:05:42;2.78;;;0.90;;
65373;SDS011;52070;53.760;9.678;2023-08-08T09:08:10;3.33;;;1.00;;
65373;SDS011;52070;53.760;9.678;2023-08-08T09:10:39;4.55;;;1.20;;
65373;SDS011;52070;53.760;9.678;2023-08-08T09:13:06;2.60;;;0.82;;
65373;SDS011;52070;53.760;9.678;2023-08-08T09:15:33;4.13;;;1.17;;
65373;SDS011;52070;53.760;9.678;2023-08-08T09:18:01;7.97;;;1.35;;
65373;SDS011;52070;53.760;9.678;2023-08-08T09:20:28;9.13;;;1.38;;
65373;SDS011;52070;53.760;9.678;2023-08-08T09:22:55;5.47;;;1.20;;
65373;SDS011;52070;53.760;9.678;2023-08-08T09:25:23;4.13;;;1.00;;
65373;SDS011;52070;53.760;9.678;2023-08-08T09:27:52;4.65;;;1.00;;
65373;SDS011;52070;53.760;9.678;2023-08-08T09:30:19;2.22;;;0.85;;
65373;SDS011;52070;53.760;9.678;2023-08-08T09:32:47;5.63;;;0.90;;
65373;SDS011;52070;53.760;9.678;2023-08-08T09:35:14;3.78;;;1.10;;
65373;SDS011;52070;53.760;9.678;2023-08-08T09:37:41;3.00;;;0.80;;
65373;SDS011;52070;53.760;9.678;2023-08-08T09:40:09;3.50;;;1.00;;
65373;SDS011;52070;53.760;9.678;2023-08-08T09:42:36;1.92;;;0.98;;
65373;SDS011;52070;53.760;9.678;2023-08-08T09:45:05;2.33;;;0.75;;
65373;SDS011;52070;53.760;9.678;2023-08-08T09:47:34;2.33;;;0.90;;
65373;SDS011;52070;53.760;9.678;2023-08-08T09:50:02;11.20;;;1.17;;
65373;SDS011;52070;53.760;9.678;2023-08-08T09:52:30;3.25;;;1.05;;
65373;SDS011;52070;53.760;9.678;2023-08-08T09:54:57;4.30;;;1.00;;
65373;SDS011;52070;53.760;9.678;2023-08-08T09:57:25;5.10;;;0.88;;
65373;SDS011;52070;53.760;9.678;2023-08-08T09:59:52;7.68;;;1.30;;
65373;SDS011;52070;53.760;9.678;2023-08-08T10:02:20;1.73;;;0.65;;
65373;SDS011;52070;53.760;9.678;2023-08-08T10:04:47;5.45;;;1.60;;
65373;SDS011;52070;53.760;9.678;2023-08-08T10:07:14;4.88;;;1.10;;
65373;SDS011;52070;53.760;9.678;2023-08-08T10:09:41;2.38;;;1.10;;
65373;SDS011;52070;53.760;9.678;2023-08-08T10:12:09;3.03;;;1.00;;
65373;SDS011;52070;53.760;9.678;2023-08-08T10:14:38;4.15;;;0.90;;
65373;SDS011;52070;53.760;9.678;2023-08-08T10:17:12;3.63;;;0.93;;
65373;SDS011;52070;53.760;9.678;2023-08-08T10:19:41;3.70;;;1.02;;
65373;SDS011;52070;53.760;9.678;2023-08-08T10:22:19;3.47;;;1.20;;
65373;SDS011;52070;53.760;9.678;2023-08-08T10:24:47;2.85;;;0.90;;
65373;SDS011;52070;53.760;9.678;2023-08-08T10:27:26;4.93;;;1.10;;
65373;SDS011;52070;53.760;9.678;2023-08-08T10:29:54;3.90;;;0.90;;
65373;SDS011;52070;53.760;9.678;2023-08-08T10:32:27;3.40;;;1.17;;
65373;SDS011;52070;53.760;9.678;2023-08-08T10:34:55;7.45;;;1.23;;
65373;SDS011;52070;53.760;9.678;2023-08-08T10:37:26;3.90;;;1.20;;
65373;SDS011;52070;53.760;9.678;2023-08-08T10:39:53;3.05;;;1.30;;
65373;SDS011;52070;53.760;9.678;2023-08-08T10:42:23;2.33;;;0.90;;
65373;SDS011;52070;53.760;9.678;2023-08-08T10:44:51;3.17;;;1.10;;
65373;SDS011;52070;53.760;9.678;2023-08-08T10:47:21;2.45;;;1.20;;
65373;SDS011;52070;53.760;9.678;2023-08-08T10:49:57;4.82;;;1.10;;
65373;SDS011;52070;53.760;9.678;2023-08-08T10:52:26;2.92;;;1.13;;
65373;SDS011;52070;53.760;9.678;2023-08-08T10:54:53;3.45;;;0.98;;
65373;SDS011;52070;53.760;9.678;2023-08-08T10:57:24;3.58;;;0.93;;
65373;SDS011;52070;53.760;9.678;2023-08-08T10:59:51;5.13;;;1.33;;
65373;SDS011;52070;53.760;9.678;2023-08-08T11:02:19;3.08;;;0.85;;
65373;SDS011;52070;53.760;9.678;2023-08-08T11:04:47;4.93;;;1.42;;
65373;SDS011;52070;53.760;9.678;2023-08-08T11:07:15;3.08;;;1.00;;
65373;SDS011;52070;53.760;9.678;2023-08-08T11:09:43;5.35;;;1.42;;
65373;SDS011;52070;53.760;9.678;2023-08-08T11:12:13;8.57;;;1.25;;
65373;SDS011;52070;53.760;9.678;2023-08-08T11:14:40;6.18;;;1.33;;
65373;SDS011;52070;53.760;9.678;2023-08-08T11:17:07;5.97;;;1.30;;
65373;SDS011;52070;53.760;9.678;2023-08-08T11:19:38;6.40;;;1.35;;
65373;SDS011;52070;53.760;9.678;2023-08-08T11:22:09;7.72;;;1.02;;
65373;SDS011;52070;53.760;9.678;2023-08-08T11:27:05;3.20;;;1.15;;
65373;SDS011;52070;53.760;9.678;2023-08-08T11:29:32;6.30;;;1.40;;
65373;SDS011;52070;53.760;9.678;2023-08-08T11:31:59;8.93;;;1.45;;
65373;SDS011;52070;53.760;9.678;2023-08-08T11:34:29;5.35;;;1.20;;
65373;SDS011;52070;53.760;9.678;2023-08-08T11:36:57;5.75;;;1.02;;
65373;SDS011;52070;53.760;9.678;2023-08-08T11:39:25;7.80;;;1.13;;
65373;SDS011;52070;53.760;9.678;2023-08-08T11:41:54;6.95;;;1.20;;
65373;SDS011;52070;53.760;9.678;2023-08-08T11:44:22;6.43;;;1.10;;
65373;SDS011;52070;53.760;9.678;2023-08-08T11:46:49;9.02;;;1.50;;
65373;SDS011;52070;53.760;9.678;2023-08-08T11:49:16;9.05;;;1.48;;
65373;SDS011;52070;53.760;9.678;2023-08-08T11:51:44;6.82;;;1.23;;
65373;SDS011;52070;53.760;9.678;2023-08-08T11:54:12;10.45;;;1.60;;
65373;SDS011;52070;53.760;9.678;2023-08-08T11:56:40;7.25;;;1.20;;
65373;SDS011;52070;53.760;9.678;2023-08-08T11:59:09;8.02;;;1.10;;
65373;SDS011;52070;53.760;9.678;2023-08-08T12:01:38;8.90;;;1.50;;
65373;SDS011;52070;53.760;9.678;2023-08-08T12:04:05;5.32;;;1.20;;
65373;SDS011;52070;53.760;9.678;2023-08-08T12:06:36;4.43;;;1.10;;
65373;SDS011;52070;53.760;9.678;2023-08-08T12:09:04;8.57;;;1.27;;
65373;SDS011;52070;53.760;9.678;2023-08-08T12:11:33;7.72;;;1.25;;
65373;SDS011;52070;53.760;9.678;2023-08-08T12:14:02;4.27;;;1.00;;
65373;SDS011;52070;53.760;9.678;2023-08-08T12:16:30;5.70;;;1.48;;
65373;SDS011;52070;53.760;9.678;2023-08-08T12:19:00;6.25;;;1.05;;
65373;SDS011;52070;53.760;9.678;2023-08-08T12:21:28;8.70;;;1.10;;
65373;SDS011;52070;53.760;9.678;2023-08-08T12:23:55;5.85;;;1.30;;
65373;SDS011;52070;53.760;9.678;2023-08-08T12:26:22;9.20;;;1.15;;
65373;SDS011;52070;53.760;9.678;2023-08-08T12:28:49;6.72;;;1.10;;
65373;SDS011;52070;53.760;9.678;2023-08-08T12:31:19;6.07;;;1.20;;
65373;SDS011;52070;53.760;9.678;2023-08-08T12:33:47;6.35;;;1.20;;
65373;SDS011;52070;53.760;9.678;2023-08-08T12:36:15;13.98;;;1.60;;
65373;SDS011;52070;53.760;9.678;2023-08-08T12:38:42;9.82;;;1.10;;
65373;SDS011;52070;53.760;9.678;2023-08-08T12:41:09;5.97;;;1.20;;
65373;SDS011;52070;53.760;9.678;2023-08-08T12:43:36;13.50;;;1.70;;
65373;SDS011;52070;53.760;9.678;2023-08-08T12:46:03;10.13;;;1.45;;
65373;SDS011;52070;53.760;9.678;2023-08-08T12:48:30;11.38;;;1.50;;
65373;SDS011;52070;53.760;9.678;2023-08-08T12:50:58;10.13;;;1.40;;
65373;SDS011;52070;53.760;9.678;2023-08-08T12:53:25;8.40;;;1.20;;
65373;SDS011;52070;53.760;9.678;2023-08-08T12:55:52;7.22;;;1.40;;
65373;SDS011;52070;53.760;9.678;2023-08-08T12:58:19;5.22;;;1.13;;
65373;SDS011;52070;53.760;9.678;2023-08-08T13:00:46;6.10;;;1.17;;
65373;SDS011;52070;53.760;9.678;2023-08-08T13:03:13;6.40;;;1.77;;
65373;SDS011;52070;53.760;9.678;2023-08-08T13:05:40;7.55;;;1.30;;
65373;SDS011;52070;53.760;9.678;2023-08-08T13:08:09;10.15;;;1.30;;
65373;SDS011;52070;53.760;9.678;2023-08-08T13:10:36;6.40;;;1.63;;
65373;SDS011;52070;53.760;9.678;2023-08-08T13:13:03;13.90;;;1.45;;
65373;SDS011;52070;53.760;9.678;2023-08-08T13:15:30;7.82;;;1.05;;
65373;SDS011;52070;53.760;9.678;2023-08-08T13:17:57;10.02;;;1.60;;
65373;SDS011;52070;53.760;9.678;2023-08-08T13:20:24;13.77;;;1.58;;
65373;SDS011;52070;53.760;9.678;2023-08-08T13:22:51;12.13;;;1.92;;
65373;SDS011;52070;53.760;9.678;2023-08-08T13:25:21;9.85;;;1.58;;
65373;SDS011;52070;53.760;9.678;2023-08-08T13:27:48;10.50;;;1.60;;
65373;SDS011;52070;53.760;9.678;2023-08-08T13:30:15;7.45;;;1.60;;
65373;SDS011;52070;53.760;9.678;2023-08-08T13:32:42;9.57;;;1.30;;
65373;SDS011;52070;53.760;9.678;2023-08-08T13:35:09;12.45;;;1.85;;
65373;SDS011;52070;53.760;9.678;2023-08-08T13:37:36;18.95;;;2.72;;
65373;SDS011;52070;53.760;9.678;2023-08-08T13:40:03;10.75;;;1.50;;
65373;SDS011;52070;53.760;9.678;2023-08-08T13:42:32;10.30;;;1.80;;
65373;SDS011;52070;53.760;9.678;2023-08-08T13:44:59;9.43;;;1.67;;
65373;SDS011;52070;53.760;9.678;2023-08-08T13:47:26;13.30;;;1.55;;
65373;SDS011;52070;53.760;9.678;2023-08-08T13:49:53;6.57;;;1.70;;
65373;SDS011;52070;53.760;9.678;2023-08-08T13:52:20;8.43;;;1.63;;
65373;SDS011;52070;53.760;9.678;2023-08-08T13:54:47;12.38;;;1.60;;
65373;SDS011;52070;53.760;9.678;2023-08-08T13:57:14;6.60;;;1.25;;
65373;SDS011;52070;53.760;9.678;2023-08-08T14:02:57;10.05;;;1.30;;
65373;SDS011;52070;53.760;9.678;2023-08-08T14:05:24;6.72;;;1.27;;
65373;SDS011;52070;53.760;9.678;2023-08-08T14:07:54;16.88;;;1.67;;
65373;SDS011;52070;53.760;9.678;2023-08-08T14:10:21;11.32;;;1.63;;
65373;SDS011;52070;53.760;9.678;2023-08-08T14:12:48;7.38;;;1.83;;
65373;SDS011;52070;53.760;9.678;2023-08-08T14:15:21;11.07;;;1.55;;
65373;SDS011;52070;53.760;9.678;2023-08-08T14:17:48;11.30;;;1.45;;
65373;SDS011;52070;53.760;9.678;2023-08-08T14:20:16;11.20;;;1.85;;
65373;SDS011;52070;53.760;9.678;2023-08-08T14:22:44;14.07;;;1.65;;
65373;SDS011;52070;53.760;9.678;2023-08-08T14:25:12;6.45;;;1.33;;
65373;SDS011;52070;53.760;9.678;2023-08-08T14:27:44;8.15;;;1.35;;
65373;SDS011;52070;53.760;9.678;2023-08-08T14:30:11;9.98;;;1.63;;
65373;SDS011;52070;53.760;9.678;2023-08-08T14:32:38;14.43;;;1.70;;
65373;SDS011;52070;53.760;9.678;2023-08-08T14:35:05;9.48;;;1.30;;
65373;SDS011;52070;53.760;9.678;2023-08-08T14:37:35;9.95;;;1.40;;
65373;SDS011;52070;53.760;9.678;2023-08-08T14:40:03;5.90;;;1.52;;
65373;SDS011;52070;53.760;9.678;2023-08-08T14:42:31;12.55;;;1.63;;
65373;SDS011;52070;53.760;9.678;2023-08-08T14:44:58;7.85;;;1.70;;
65373;SDS011;52070;53.760;9.678;2023-08-08T14:47:25;12.65;;;1.60;;
65373;SDS011;52070;53.760;9.678;2023-08-08T14:49:52;17.20;;;1.90;;
65373;SDS011;52070;53.760;9.678;2023-08-08T14:52:19;11.27;;;1.77;;
65373;SDS011;52070;53.760;9.678;2023-08-08T14:54:47;8.73;;;1.50;;